Latest Weather Observations for Latrobe Valley

IDV60801

Issued at 3:02 pm EST Saturday 30 April 2016 (issued every 30 minutes, with the page automatically refreshed every 10 minutes)

About weather observations | Map of weather stations | Latest weather observations for VIC | Other Formats
Station Details ID: 085280 Name: LATROBE VALLEY AIRPORT Lat: -38.21 Lon: 146.47 Height: 55.7 m
Data from the previous 72 hours. | See also: Recent months at Latrobe Valley
Date/Time
EST
Temp
°C
App
Temp
°C
Dew
Point
Rel
Hum
%
Delta-T
°C
Wind Press
QNH
hPa
Press
MSL
hPa
Rain
since 9 am
mm
Dir
 
Spd
km/h
Gust
km/h
Spd
kts
Gust
kts
30/03:00pm 24.6 24.7 13.8 51 6.4 WSW 6 9 3 5 1011.3 1011.3 0.2
30/02:30pm 24.1 24.6 13.9 53 6.0 W 4 7 2 4 1011.3 1011.3 0.2
30/02:00pm 23.5 23.6 14.5 57 5.3 W 7 11 4 6 1011.7 1011.7 0.2
30/01:30pm 23.4 23.1 14.4 57 5.3 W 9 15 5 8 1012.0 1012.0 0.2
30/01:00pm 23.1 23.5 15.2 61 4.7 WSW 7 17 4 9 1012.5 1012.5 0.2
30/12:30pm 22.1 23.0 16.1 69 3.6 SW 6 9 3 5 1013.1 1013.1 0.2
30/12:00pm 21.0 22.1 16.6 76 2.7 WNW 6 9 3 5 1013.7 1013.6 0.0
30/11:30am 20.4 21.5 16.6 79 2.3 NNE 6 9 3 5 1013.8 1013.7 0.0
30/11:00am 18.2 18.9 16.2 88 1.2 N 7 9 4 5 1014.3 1014.2 0.0
30/10:30am 16.6 16.9 16.0 96 0.4 NNE 9 13 5 7 1014.7 1014.6 0.0
30/10:18am 16.2 16.4 15.7 97 0.3 NNE 9 11 5 6 1014.9 1014.8 0.0
30/10:12am 15.9 16.0 15.4 97 0.3 NNE 9 11 5 6 1014.8 1014.7 0.0
30/10:00am 15.6 16.2 15.3 98 0.2 N 6 9 3 5 1014.9 1014.8 0.0
30/09:30am 13.6 14.3 13.3 98 0.2 E 2 6 1 3 1015.2 1015.1 0.0
30/09:00am 13.0 13.1 12.7 98 0.2 ENE 4 7 2 4 1015.6 1015.5 3.6
30/08:30am 12.2 12.8 11.9 98 0.2 CALM 0 0 0 0 1015.8 1015.7 3.6
30/08:00am 11.4 10.6 11.1 98 0.2 S 6 7 3 4 1015.6 1015.5 3.6
30/07:30am 10.9 11.1 10.4 97 0.3 CALM 0 0 0 0 1015.4 1015.3 3.6
30/07:00am 11.4 11.7 10.9 97 0.3 CALM 0 0 0 0 1015.0 1014.9 3.6
30/06:30am 11.9 12.3 11.4 97 0.3 CALM 0 0 0 0 1014.9 1014.8 3.6
30/06:00am 12.3 12.9 11.8 97 0.3 CALM 0 0 0 0 1014.9 1014.8 3.6
30/05:30am 12.5 13.1 12.0 97 0.3 CALM 0 0 0 0 1014.8 1014.7 3.6
30/05:00am 12.6 13.3 12.1 97 0.3 CALM 0 0 0 0 1014.6 1014.5 3.6
30/04:30am 12.7 12.6 12.2 97 0.3 SSW 4 9 2 5 1014.4 1014.3 3.6
30/04:00am 12.9 12.5 12.4 97 0.3 SSE 6 9 3 5 1014.3 1014.2 3.6
30/03:30am 13.0 13.0 12.5 97 0.3 SSE 4 7 2 4 1014.2 1014.1 3.4
30/03:00am 13.1 13.2 12.6 97 0.3 NNE 4 7 2 4 1014.3 1014.2 3.4
30/02:30am 14.2 15.4 13.7 97 0.3 CALM 0 0 0 0 1014.3 1014.2 3.4
30/02:00am 14.0 14.7 13.5 97 0.3 NE 2 7 1 4 1014.3 1014.2 3.4
30/01:30am 14.6 15.9 14.1 97 0.3 CALM 0 0 0 0 1014.4 1014.3 3.4
30/01:00am 14.5 15.8 14.0 97 0.3 CALM 0 0 0 0 1014.5 1014.4 3.4
30/12:30am 14.7 16.0 14.2 97 0.3 CALM 0 6 0 3 1014.4 1014.3 3.4
30/12:00am 14.3 14.4 13.8 97 0.3 NE 6 7 3 4 1014.4 1014.3 3.4
 
Date/Time
EST
Temp
°C
App
Temp
°C
Dew
Point
Rel
Hum
%
Delta-T
°C
Wind Press
QNH
hPa
Press
MSL
hPa
Rain
since 9 am
mm
Dir
 
Spd
km/h
Gust
km/h
Spd
kts
Gust
kts
29/11:30pm 14.2 14.2 13.6 96 0.3 NNE 6 7 3 4 1014.7 1014.6 3.4
29/11:29pm 14.2 14.2 13.6 96 0.3 NNE 6 7 3 4 1014.6 1014.5 3.4
29/11:00pm 14.2 15.3 13.6 96 0.3 CALM 0 0 0 0 1014.9 1014.8 3.4
29/10:30pm 14.4 15.6 13.9 97 0.3 CALM 0 0 0 0 1015.0 1014.9 3.4
29/10:16pm 14.3 15.5 13.7 96 0.3 CALM 0 0 0 0 1015.1 1015.0 3.4
29/10:00pm 14.4 15.3 13.9 97 0.3 NE 2 7 1 4 1015.1 1015.0 3.4
29/09:45pm 13.9 14.6 13.3 96 0.3 ENE 2 7 1 4 1015.2 1015.1 3.4
29/09:34pm 13.1 12.7 12.5 96 0.3 NE 6 7 3 4 1015.2 1015.1 3.4
29/09:30pm 13.2 12.9 12.6 96 0.3 ENE 6 7 3 4 1015.1 1015.0 3.4
29/09:00pm 14.1 15.1 13.3 95 0.4 CALM 0 0 0 0 1014.8 1014.7 3.4
29/08:38pm 15.1 16.2 14.5 96 0.3 ESE 2 6 1 3 1014.4 1014.3 3.4
29/08:30pm 15.2 15.9 14.6 96 0.3 SE 4 7 2 4 1014.3 1014.2 3.4
29/08:28pm 15.2 15.5 14.6 96 0.3 SE 6 7 3 4 1014.3 1014.2 3.4
29/08:00pm 15.6 15.8 14.8 95 0.5 SE 7 9 4 5 1014.1 1014.0 3.4
29/07:30pm 16.0 16.9 15.2 95 0.5 E 4 7 2 4 1014.0 1013.9 3.4
29/07:00pm 16.0 17.3 15.2 95 0.5 ESE 2 6 1 3 1013.9 1013.8 3.4
29/06:30pm 16.0 16.0 15.2 95 0.5 NE 9 13 5 7 1013.5 1013.4 3.4
29/06:00pm 16.2 17.6 15.4 95 0.5 E 2 6 1 3 1013.4 1013.3 3.4
29/05:30pm 16.2 16.2 15.2 94 0.6 NE 9 11 5 6 1013.7 1013.6 3.2
29/05:00pm 16.6 17.6 15.3 92 0.8 S 4 9 2 5 1014.0 1013.9 3.0
29/04:30pm 16.7 16.8 15.6 93 0.6 S 9 11 5 6 1013.9 1013.8 3.0
29/04:00pm 17.0 18.9 15.7 92 0.8 CALM 0 0 0 0 1014.5 1014.4 2.6
29/03:30pm 17.0 17.6 15.7 92 0.8 WSW 7 9 4 5 1014.6 1014.5 2.2
29/03:00pm 17.2 17.8 15.9 92 0.8 SW 7 9 4 5 1014.4 1014.3 1.6
29/02:30pm 17.1 17.8 16.1 94 0.6 WSW 7 9 4 5 1014.3 1014.2 1.4
29/02:00pm 16.8 18.7 15.7 93 0.6 CALM 0 0 0 0 1014.0 1013.9 1.2
29/01:30pm 16.5 18.1 15.0 91 0.9 CALM 0 7 0 4 1014.0 1013.9 1.2
29/01:00pm 17.0 17.8 14.8 87 1.3 SSW 4 9 2 5 1014.0 1013.9 0.8
29/12:30pm 17.1 16.7 14.2 83 1.7 WSW 9 11 5 6 1014.6 1014.5 0.4
29/12:00pm 18.2 17.4 12.9 71 3.0 W 9 13 5 7 1014.9 1014.8 0.0
29/11:30am 17.5 16.2 13.6 78 2.2 W 13 20 7 11 1014.7 1014.6 0.0
29/11:00am 16.9 16.6 13.2 79 2.1 NNW 7 9 4 5 1015.0 1014.9 0.0
29/10:30am 16.3 16.5 13.0 81 1.8 N 4 9 2 5 1015.0 1014.9 0.0
29/10:00am 15.7 14.9 12.8 83 1.6 NE 9 13 5 7 1015.0 1014.9 0.0
29/09:30am 15.5 14.9 12.4 82 1.7 NE 7 11 4 6 1015.5 1015.4 0.0
29/09:00am 15.0 14.3 12.1 83 1.6 SW 7 9 4 5 1016.1 1016.0 0.0
29/08:30am 14.0 13.8 11.9 87 1.1 S 4 7 2 4 1016.2 1016.1 0.0
29/08:00am 13.8 14.1 12.2 90 0.9 NNE 2 7 1 4 1015.9 1015.8 0.0
29/07:30am 11.5 11.2 10.1 91 0.7 N 2 11 1 6 1016.0 1015.9 0.0
29/07:00am 11.6 11.2 9.7 88 1.0 NNE 2 7 1 4 1015.7 1015.6 0.0
29/06:30am 12.2 11.1 10.6 90 0.8 NE 7 9 4 5 1015.9 1015.8 0.0
29/06:00am 11.9 11.7 10.3 90 0.8 NE 2 7 1 4 1015.9 1015.8 0.0
29/05:30am 11.8 11.9 10.2 90 0.8 CALM 0 6 0 3 1016.1 1016.0 0.0
29/05:00am 12.7 11.7 11.1 90 0.8 NE 7 11 4 6 1016.1 1016.0 0.0
29/04:30am 12.3 12.5 10.7 90 0.8 CALM 0 0 0 0 1016.0 1015.9 0.0
29/04:00am 13.1 13.4 11.0 87 1.1 CALM 0 6 0 3 1016.0 1015.9 0.0
29/03:30am 13.5 13.6 11.4 87 1.1 NNE 2 6 1 3 1016.2 1016.1 0.0
29/03:00am 13.2 12.7 10.9 86 1.2 NE 4 6 2 3 1016.4 1016.3 0.0
29/02:30am 14.2 14.7 11.5 84 1.4 CALM 0 6 0 3 1016.5 1016.4 0.0
29/02:00am 15.2 14.6 11.8 80 1.8 NNE 6 7 3 4 1016.7 1016.6 0.0
29/01:30am 15.0 14.2 11.6 80 1.8 NE 7 9 4 5 1017.0 1016.9 0.0
29/01:00am 15.0 14.2 11.8 81 1.7 NE 7 7 4 4 1017.0 1016.9 0.0
29/12:30am 16.4 15.3 12.0 75 2.4 ESE 9 11 5 6 1017.3 1017.2 0.0
29/12:00am 15.3 15.5 11.7 79 1.9 SE 2 6 1 3 1017.7 1017.6 0.0
 
Date/Time
EST
Temp
°C
App
Temp
°C
Dew
Point
Rel
Hum
%
Delta-T
°C
Wind Press
QNH
hPa
Press
MSL
hPa
Rain
since 9 am
mm
Dir
 
Spd
km/h
Gust
km/h
Spd
kts
Gust
kts
28/11:30pm 16.5 15.3 11.6 73 2.7 E 9 11 5 6 1017.6 1017.5 0.0
28/11:00pm 16.3 15.8 11.9 75 2.4 E 6 9 3 5 1017.8 1017.7 0.0
28/10:30pm 17.1 16.3 11.8 71 2.9 ENE 7 9 4 5 1018.0 1017.9 0.0
28/10:00pm 17.2 16.5 11.9 71 2.9 ENE 7 9 4 5 1018.1 1018.0 0.0
28/09:30pm 17.4 16.9 11.9 70 3.0 ENE 6 9 3 5 1018.3 1018.2 0.0
28/09:00pm 18.1 17.4 12.1 68 3.3 ENE 7 11 4 6 1018.1 1018.0 0.0
28/08:30pm 18.2 17.5 12.0 67 3.4 ENE 7 7 4 4 1018.2 1018.1 0.0
28/08:00pm 19.4 18.3 11.9 62 4.2 ENE 9 13 5 7 1018.0 1017.9 0.0
28/07:30pm 18.9 17.9 12.4 66 3.6 E 9 11 5 6 1018.0 1017.9 0.0
28/07:00pm 18.9 17.9 12.4 66 3.6 ESE 9 9 5 5 1017.8 1017.7 0.0
28/06:30pm 19.0 18.5 12.7 67 3.5 E 7 9 4 5 1017.7 1017.6 0.0
28/06:00pm 19.9 19.3 12.4 62 4.2 ENE 7 9 4 5 1017.7 1017.6 0.0
28/05:30pm 20.0 19.8 13.0 64 4.0 S 6 9 3 5 1017.7 1017.6 0.0
28/05:00pm 20.7 20.4 13.2 62 4.3 NE 7 9 4 5 1017.4 1017.3 0.0
28/04:30pm 20.8 19.8 13.5 63 4.2 NE 11 15 6 8 1017.3 1017.2 0.0
28/04:00pm 21.0 20.7 14.4 66 3.9 NE 9 11 5 6 1017.5 1017.4 0.0
28/03:30pm 22.0 21.8 13.6 59 4.9 ENE 7 9 4 5 1017.4 1017.3 0.0
28/03:00pm 22.8 23.0 13.0 54 5.6 ESE 4 7 2 4 1017.2 1017.1 0.0
28/02:30pm 22.7 22.5 13.7 56 5.2 ENE 7 11 4 6 1017.0 1016.9 0.0
28/02:00pm 22.4 22.2 13.5 57 5.2 NNE 7 9 4 5 1017.2 1017.1 0.0
28/01:30pm 22.0 21.7 13.4 58 5.0 E 7 9 4 5 1017.3 1017.2 0.0
28/01:00pm 22.2 22.2 13.5 57 5.0 N 6 7 3 4 1017.6 1017.5 0.0
28/12:30pm 21.9 23.2 14.0 61 4.6 CALM 0 0 0 0 1017.6 1017.5 0.0
28/12:00pm 20.9 21.4 15.0 69 3.5 NNW 6 7 3 4 1018.1 1018.0 0.0
28/11:30am 21.7 22.6 13.9 61 4.5 S 2 7 1 4 1018.4 1018.3 0.0
28/11:00am 21.1 20.9 13.0 60 4.6 SSW 6 7 3 4 1018.4 1018.3 0.0
28/10:30am 19.7 20.0 13.4 67 3.6 WSW 4 7 2 4 1018.3 1018.2 0.0
28/10:00am 18.2 18.6 12.6 70 3.1 NNW 2 9 1 5 1018.2 1018.1 0.0
28/09:30am 17.4 17.4 12.5 73 2.7 N 4 7 2 4 1018.3 1018.2 0.0
28/09:00am 16.6 16.9 12.2 75 2.4 E 2 6 1 3 1018.3 1018.2 0.0
28/08:30am 14.7 14.5 11.7 82 1.6 E 4 9 2 5 1018.2 1018.1 0.0
28/08:00am 13.9 13.1 10.9 82 1.6 SSW 6 7 3 4 1017.7 1017.6 0.0
28/07:30am 12.6 12.4 10.5 87 1.1 NNE 2 7 1 4 1017.6 1017.5 0.0
28/07:00am 12.2 11.8 9.9 86 1.2 S 2 11 1 6 1017.6 1017.5 0.0
28/06:30am 12.9 13.0 10.1 83 1.4 CALM 0 0 0 0 1017.5 1017.4 0.0
28/06:00am 12.6 12.3 10.0 84 1.3 SSW 2 7 1 4 1017.4 1017.3 0.0
28/05:30am 13.2 12.5 10.0 81 1.7 SSW 4 9 2 5 1017.3 1017.2 0.0
28/05:00am 13.7 13.3 9.9 78 2.0 S 2 7 1 4 1017.1 1017.0 0.0
28/04:30am 13.5 12.4 9.9 79 1.9 WSW 6 9 3 5 1016.8 1016.7 0.0
28/04:00am 13.8 12.1 9.8 77 2.1 NNE 9 13 5 7 1016.6 1016.5 0.0
28/03:30am 13.7 12.9 9.7 77 2.1 NNW 4 9 2 5 1016.5 1016.4 0.0
28/03:00am 13.5 11.7 9.6 77 2.0 NNE 9 15 5 8 1016.6 1016.5 0.0
28/02:30am 14.0 12.2 9.6 75 2.3 NE 9 11 5 6 1016.8 1016.7 0.0
28/02:00am 14.9 13.5 9.7 71 2.7 ENE 7 13 4 7 1017.0 1016.9 0.0
28/01:30am 15.2 14.8 9.6 69 2.9 NE 2 9 1 5 1017.2 1017.1 0.0
28/01:00am 16.2 14.3 9.2 63 3.6 E 9 13 5 7 1017.1 1017.0 0.0
28/12:30am 14.2 12.4 9.6 74 2.4 ENE 9 11 5 6 1017.3 1017.2 0.0
28/12:00am 14.8 13.5 9.8 72 2.6 ENE 7 13 4 7 1017.4 1017.3 0.0
 
Date/Time
EST
Temp
°C
App
Temp
°C
Dew
Point
Rel
Hum
%
Delta-T
°C
Wind Press
QNH
hPa
Press
MSL
hPa
Rain
since 9 am
mm
Dir
 
Spd
km/h
Gust
km/h
Spd
kts
Gust
kts
27/11:30pm 15.1 14.4 9.9 71 2.7 ENE 4 9 2 5 1017.7 1017.6 0.0
27/11:00pm 14.6 13.1 10.4 76 2.2 NE 9 11 5 6 1017.7 1017.6 0.0
27/10:30pm 14.3 13.2 10.1 76 2.2 NNE 6 9 3 5 1017.9 1017.8 0.0
27/10:00pm 13.4 13.4 9.8 79 1.8 CALM 0 0 0 0 1018.3 1018.2 0.0
27/09:30pm 14.3 14.2 9.3 72 2.6 CALM 0 0 0 0 1018.1 1018.0 0.0
27/09:00pm 15.5 15.6 10.1 70 2.8 CALM 0 0 0 0 1017.9 1017.8 0.0
27/08:30pm 15.9 15.5 9.8 67 3.2 W 2 6 1 3 1017.9 1017.8 0.0
27/08:00pm 17.2 15.4 9.4 60 4.1 ESE 9 11 5 6 1017.8 1017.7 0.0
27/07:30pm 16.0 14.6 9.7 66 3.3 E 7 11 4 6 1018.1 1018.0 0.0
27/07:00pm 17.5 15.3 9.4 59 4.2 NNE 11 19 6 10 1018.2 1018.1 0.0
27/06:30pm 19.1 18.3 9.6 54 5.0 WNW 4 9 2 5 1018.0 1017.9 0.0
27/06:00pm 17.9 16.1 9.3 57 4.5 NW 9 11 5 6 1017.9 1017.8 0.0
27/05:30pm 20.3 18.4 9.2 49 5.9 W 9 11 5 6 1017.6 1017.5 0.0
27/05:00pm 21.9 20.1 9.4 45 6.7 N 9 13 5 7 1017.2 1017.1 0.0
27/04:30pm 23.1 20.4 9.1 41 7.5 NNW 13 17 7 9 1016.9 1016.8 0.0
27/04:00pm 25.3 22.2 8.7 35 9.0 N 15 22 8 12 1017.0 1016.9 0.0
27/03:30pm 25.7 21.5 8.2 33 9.4 N 20 28 11 15 1016.9 1016.8 0.0

Other Formats:

Comma delimited format used in spreadsheet applications
http://www.bom.gov.au/fwo/IDV60801/IDV60801.94891.axf

JavaScript Object Notation format (JSON) in row-major order
http://www.bom.gov.au/fwo/IDV60801/IDV60801.94891.json